Pagrindinis puslapis
METAR-TAF:

METAR-TAF

Oro uostai :

Abu Dabis, Jungtiniai Arabų Emyratai

platuma: 24-26N, ilguma: 054-28E, Aukštis: 5 m

Dabartinis oras

Ataskaita buvo paskelbta 45 minutes, ne 04:00 UTC
Vėjas 4 kt iš Šiaurės Rytų, svyruoja nuo Šiaurės ir Rytų/Šiaurės Rytų
Temperatūra 27°C
Drėgmė 51%
Slėgis 1009 hPa
Matomumas 10 km arba daugiau
nėra debesų žemiau 1500 m ir nėra kamuolinių lietaus debesų

METAR: OMAD 220400Z 04004KT 360V070 CAVOK 27/16 Q1009 NOSIG

Laikas: 08:45 (04:45 UTC)

Prognozė

Ataskaita buvo paskelbta 5 valandos ir 45 minutes, ne 23:00 UTC
Prognozė galioja nuo 22 metu 00 UTC su 23 metu 06 UTC
Vėjas 6 kt iš Rytų
Matomumas: 8000 m
Tapsmas
nuo 22 metu 09 UTC su 22 metu 11 UTC
Vėjas 10 kt iš Šiaurės/Šiaurės Vakarų
Tapsmas
nuo 22 metu 17 UTC su 22 metu 19 UTC
Vėjas 5 kt iš Rytų/Šiaurės Rytų
Tapsmas
nuo 23 metu 03 UTC su 23 metu 05 UTC
Vėjas 10 kt iš Pietų/Pietryčių

TAF: OMAD 212300Z 2200/2306 10006KT 8000 NSC BECMG 2209/2211 34010KT BECMG 2217/2219 06005KT BECMG 2303/2305 16010KT

Orai ataskaitas ir orų prognozės (METAR, TAF).

turimą stotys yra geltonos ir raudonos taškus žemėlapyje.

Perkelti pele per norėdami pamatyti stoties vardą.

Tada spustelėkite, norėdami matyti oro stebėjimo ir prognozės.

Norėdami pakeisti žemėlapį: spustelėkite ant žalios mygtukų su juodo kryžiaus žemyn,; žalią mygtuką su brūkšneliu, jei norite nutolinti; arba žalių rodyklių gretimoms žemėlapius.


METAR-TAF: